KGAG

Gage Airport

Gage, Oklahoma, USA
METAR KGAG 221953Z AUTO 19011G20KT 10SM CLR 25/09 A3004 RMK AO2 SLP156 T02500089
Observed Flight Rules
Oct-22 @ 19:53 UTC (58 minutes ago) Visual Flight Rules
Wind Visibility Clouds
190° at 11 knots
 Gusting to 20 knots
10 miles
  • Clear skies
Temperatures Readings
Current 25°C / 77°F
Dewpoint 9°C / 48°F
Humidity 36%
Altimeter 30.04" Hg
Pressure 1015.6 hPa
Elevation 668
METAR KGAG 221953Z AUTO 19011G20KT 10SM CLR 25/09 A3004 RMK AO2 SLP156 T02500089
Observed Flight Rules
Oct-22 @ 19:53 UTC
(58 minutes ago)
VFR
Wind Visibility
190° at 11 knots
 Gusting to 20 knots
10 miles
Clouds
  • Clear skies
Temperature Dewpoint
25°C / 77°F 9°C / 48°F
Humidity Altimeter Pressure
36% 30.04" Hg 1015.6 hPa